sensor_id;sensor_type;location;lat;lon;timestamp;temperature;humidity
39931;DHT22;26635;-35.248;149.138;2023-02-28T00:01:43;22.70;69.00
39931;DHT22;26635;-35.248;149.138;2023-02-28T00:04:15;22.80;68.80
39931;DHT22;26635;-35.248;149.138;2023-02-28T00:06:46;22.90;68.90
39931;DHT22;26635;-35.248;149.138;2023-02-28T00:09:16;23.10;68.30
39931;DHT22;26635;-35.248;149.138;2023-02-28T00:11:47;23.20;68.10
39931;DHT22;26635;-35.248;149.138;2023-02-28T00:14:18;23.50;68.20
39931;DHT22;26635;-35.248;149.138;2023-02-28T00:16:49;23.80;67.20
39931;DHT22;26635;-35.248;149.138;2023-02-28T00:19:20;24.20;65.50
39931;DHT22;26635;-35.248;149.138;2023-02-28T00:21:52;24.50;64.50
39931;DHT22;26635;-35.248;149.138;2023-02-28T00:24:24;24.70;64.20
39931;DHT22;26635;-35.248;149.138;2023-02-28T00:26:55;24.70;63.90
39931;DHT22;26635;-35.248;149.138;2023-02-28T00:29:26;24.90;63.30
39931;DHT22;26635;-35.248;149.138;2023-02-28T00:32:01;24.90;62.20
39931;DHT22;26635;-35.248;149.138;2023-02-28T00:34:32;25.00;62.40
39931;DHT22;26635;-35.248;149.138;2023-02-28T00:37:11;25.10;61.70
39931;DHT22;26635;-35.248;149.138;2023-02-28T00:39:43;25.30;61.40
39931;DHT22;26635;-35.248;149.138;2023-02-28T00:42:16;25.40;61.10
39931;DHT22;26635;-35.248;149.138;2023-02-28T00:44:47;25.60;60.90
39931;DHT22;26635;-35.248;149.138;2023-02-28T00:47:18;25.80;61.30
39931;DHT22;26635;-35.248;149.138;2023-02-28T00:49:50;25.90;59.60
39931;DHT22;26635;-35.248;149.138;2023-02-28T00:52:20;25.80;60.00
39931;DHT22;26635;-35.248;149.138;2023-02-28T00:54:53;25.60;59.50
39931;DHT22;26635;-35.248;149.138;2023-02-28T00:57:23;25.40;60.30
39931;DHT22;26635;-35.248;149.138;2023-02-28T00:59:54;25.40;60.90
39931;DHT22;26635;-35.248;149.138;2023-02-28T01:02:26;25.50;60.30
39931;DHT22;26635;-35.248;149.138;2023-02-28T01:04:57;25.60;60.40
39931;DHT22;26635;-35.248;149.138;2023-02-28T01:07:28;25.70;60.10
39931;DHT22;26635;-35.248;149.138;2023-02-28T01:09:59;25.80;60.00
39931;DHT22;26635;-35.248;149.138;2023-02-28T01:12:31;25.80;60.20
39931;DHT22;26635;-35.248;149.138;2023-02-28T01:15:05;25.70;59.90
39931;DHT22;26635;-35.248;149.138;2023-02-28T01:17:36;25.80;60.30
39931;DHT22;26635;-35.248;149.138;2023-02-28T01:20:08;25.90;60.00
39931;DHT22;26635;-35.248;149.138;2023-02-28T01:22:40;26.00;59.70
39931;DHT22;26635;-35.248;149.138;2023-02-28T01:25:12;26.10;59.00
39931;DHT22;26635;-35.248;149.138;2023-02-28T01:27:43;26.10;58.60
39931;DHT22;26635;-35.248;149.138;2023-02-28T01:30:14;26.20;59.50
39931;DHT22;26635;-35.248;149.138;2023-02-28T01:32:45;26.40;58.10
39931;DHT22;26635;-35.248;149.138;2023-02-28T01:35:15;26.60;56.90
39931;DHT22;26635;-35.248;149.138;2023-02-28T01:37:46;26.90;57.50
39931;DHT22;26635;-35.248;149.138;2023-02-28T01:40:17;27.10;56.30
39931;DHT22;26635;-35.248;149.138;2023-02-28T01:42:48;27.20;55.70
39931;DHT22;26635;-35.248;149.138;2023-02-28T01:48:08;27.20;55.20
39931;DHT22;26635;-35.248;149.138;2023-02-28T01:50:44;27.30;55.20
39931;DHT22;26635;-35.248;149.138;2023-02-28T01:53:21;27.40;55.40
39931;DHT22;26635;-35.248;149.138;2023-02-28T01:55:54;27.60;54.10
39931;DHT22;26635;-35.248;149.138;2023-02-28T01:58:26;27.70;53.00
39931;DHT22;26635;-35.248;149.138;2023-02-28T02:00:58;27.90;53.30
39931;DHT22;26635;-35.248;149.138;2023-02-28T02:03:30;28.10;52.60
39931;DHT22;26635;-35.248;149.138;2023-02-28T02:06:02;27.90;52.70
39931;DHT22;26635;-35.248;149.138;2023-02-28T02:08:33;27.70;51.10
39931;DHT22;26635;-35.248;149.138;2023-02-28T02:11:04;27.60;52.10
39931;DHT22;26635;-35.248;149.138;2023-02-28T02:14:40;27.60;50.70
39931;DHT22;26635;-35.248;149.138;2023-02-28T02:22:37;27.80;51.70
39931;DHT22;26635;-35.248;149.138;2023-02-28T02:41:26;28.60;49.60
39931;DHT22;26635;-35.248;149.138;2023-02-28T02:44:11;28.80;49.50
39931;DHT22;26635;-35.248;149.138;2023-02-28T02:46:45;29.00;48.20
39931;DHT22;26635;-35.248;149.138;2023-02-28T02:49:27;29.00;47.90
39931;DHT22;26635;-35.248;149.138;2023-02-28T02:52:06;29.10;48.40
39931;DHT22;26635;-35.248;149.138;2023-02-28T02:54:43;29.20;47.40
39931;DHT22;26635;-35.248;149.138;2023-02-28T02:57:23;29.30;48.40
39931;DHT22;26635;-35.248;149.138;2023-02-28T02:59:56;29.50;48.60
39931;DHT22;26635;-35.248;149.138;2023-02-28T03:02:30;29.50;47.80
39931;DHT22;26635;-35.248;149.138;2023-02-28T03:05:52;29.30;47.00
39931;DHT22;26635;-35.248;149.138;2023-02-28T03:07:57;29.20;46.80
39931;DHT22;26635;-35.248;149.138;2023-02-28T03:10:39;29.00;47.40
39931;DHT22;26635;-35.248;149.138;2023-02-28T03:30:10;27.90;49.10
39931;DHT22;26635;-35.248;149.138;2023-02-28T03:33:19;28.00;49.40
39931;DHT22;26635;-35.248;149.138;2023-02-28T03:36:07;28.10;49.10
39931;DHT22;26635;-35.248;149.138;2023-02-28T03:38:56;28.20;48.70
39931;DHT22;26635;-35.248;149.138;2023-02-28T03:42:15;28.30;48.80
39931;DHT22;26635;-35.248;149.138;2023-02-28T03:48:20;28.10;47.80
39931;DHT22;26635;-35.248;149.138;2023-02-28T03:50:58;28.00;46.70
39931;DHT22;26635;-35.248;149.138;2023-02-28T03:53:34;28.10;47.00
39931;DHT22;26635;-35.248;149.138;2023-02-28T03:56:24;28.20;47.30
39931;DHT22;26635;-35.248;149.138;2023-02-28T03:59:01;28.30;46.30
39931;DHT22;26635;-35.248;149.138;2023-02-28T04:01:49;28.30;46.80
39931;DHT22;26635;-35.248;149.138;2023-02-28T04:04:21;28.30;46.70
39931;DHT22;26635;-35.248;149.138;2023-02-28T04:07:00;28.40;46.40
39931;DHT22;26635;-35.248;149.138;2023-02-28T04:09:32;28.50;45.20
39931;DHT22;26635;-35.248;149.138;2023-02-28T04:12:05;28.60;47.00
39931;DHT22;26635;-35.248;149.138;2023-02-28T04:14:37;28.50;46.20
39931;DHT22;26635;-35.248;149.138;2023-02-28T04:17:08;28.50;46.20
39931;DHT22;26635;-35.248;149.138;2023-02-28T04:19:38;28.40;45.30
39931;DHT22;26635;-35.248;149.138;2023-02-28T04:22:10;28.50;46.10
39931;DHT22;26635;-35.248;149.138;2023-02-28T04:24:41;28.40;46.00
39931;DHT22;26635;-35.248;149.138;2023-02-28T04:27:12;28.40;46.20
39931;DHT22;26635;-35.248;149.138;2023-02-28T04:29:46;28.50;46.30
39931;DHT22;26635;-35.248;149.138;2023-02-28T04:32:16;28.50;46.50
39931;DHT22;26635;-35.248;149.138;2023-02-28T04:34:47;28.50;45.90
39931;DHT22;26635;-35.248;149.138;2023-02-28T04:37:19;28.60;45.40
39931;DHT22;26635;-35.248;149.138;2023-02-28T04:39:49;28.70;46.40
39931;DHT22;26635;-35.248;149.138;2023-02-28T04:42:20;28.70;45.80
39931;DHT22;26635;-35.248;149.138;2023-02-28T04:44:51;28.70;46.80
39931;DHT22;26635;-35.248;149.138;2023-02-28T04:47:22;28.70;45.90
39931;DHT22;26635;-35.248;149.138;2023-02-28T04:49:54;28.60;46.10
39931;DHT22;26635;-35.248;149.138;2023-02-28T04:52:27;28.60;45.70
39931;DHT22;26635;-35.248;149.138;2023-02-28T04:54:58;28.40;45.70
39931;DHT22;26635;-35.248;149.138;2023-02-28T04:57:30;28.40;47.10
39931;DHT22;26635;-35.248;149.138;2023-02-28T05:00:00;28.40;46.40
39931;DHT22;26635;-35.248;149.138;2023-02-28T05:02:36;28.40;46.60
39931;DHT22;26635;-35.248;149.138;2023-02-28T05:05:07;28.40;45.40
39931;DHT22;26635;-35.248;149.138;2023-02-28T05:07:38;28.30;46.20
39931;DHT22;26635;-35.248;149.138;2023-02-28T05:10:10;28.20;45.70
39931;DHT22;26635;-35.248;149.138;2023-02-28T05:12:42;28.10;46.70
39931;DHT22;26635;-35.248;149.138;2023-02-28T05:15:15;28.00;46.60
39931;DHT22;26635;-35.248;149.138;2023-02-28T05:17:46;27.90;46.30
39931;DHT22;26635;-35.248;149.138;2023-02-28T05:20:18;27.90;46.50
39931;DHT22;26635;-35.248;149.138;2023-02-28T05:22:50;28.00;46.20
39931;DHT22;26635;-35.248;149.138;2023-02-28T05:25:22;28.00;45.50
39931;DHT22;26635;-35.248;149.138;2023-02-28T05:27:54;28.00;46.40
39931;DHT22;26635;-35.248;149.138;2023-02-28T05:30:25;28.10;46.30
39931;DHT22;26635;-35.248;149.138;2023-02-28T05:32:56;28.20;46.80
39931;DHT22;26635;-35.248;149.138;2023-02-28T05:35:27;28.10;45.60
39931;DHT22;26635;-35.248;149.138;2023-02-28T05:37:58;28.00;45.60
39931;DHT22;26635;-35.248;149.138;2023-02-28T05:40:30;28.00;46.20
39931;DHT22;26635;-35.248;149.138;2023-02-28T05:43:00;28.00;44.40
39931;DHT22;26635;-35.248;149.138;2023-02-28T05:45:32;28.00;44.60
39931;DHT22;26635;-35.248;149.138;2023-02-28T05:48:03;28.10;43.90
39931;DHT22;26635;-35.248;149.138;2023-02-28T05:50:34;28.10;44.80
39931;DHT22;26635;-35.248;149.138;2023-02-28T05:53:05;28.00;44.70
39931;DHT22;26635;-35.248;149.138;2023-02-28T05:55:35;28.00;45.20
39931;DHT22;26635;-35.248;149.138;2023-02-28T05:58:07;27.90;45.70
39931;DHT22;26635;-35.248;149.138;2023-02-28T06:00:38;27.90;46.10
39931;DHT22;26635;-35.248;149.138;2023-02-28T06:03:09;27.90;45.90
39931;DHT22;26635;-35.248;149.138;2023-02-28T06:05:41;27.80;46.50
39931;DHT22;26635;-35.248;149.138;2023-02-28T06:08:13;27.70;45.70
39931;DHT22;26635;-35.248;149.138;2023-02-28T06:10:51;27.70;46.50
39931;DHT22;26635;-35.248;149.138;2023-02-28T06:13:25;27.60;47.20
39931;DHT22;26635;-35.248;149.138;2023-02-28T06:16:00;27.50;46.80
39931;DHT22;26635;-35.248;149.138;2023-02-28T06:18:34;27.40;47.20
39931;DHT22;26635;-35.248;149.138;2023-02-28T06:21:08;27.40;47.10
39931;DHT22;26635;-35.248;149.138;2023-02-28T06:23:41;27.40;47.20
39931;DHT22;26635;-35.248;149.138;2023-02-28T06:26:12;27.30;47.30
39931;DHT22;26635;-35.248;149.138;2023-02-28T06:28:43;27.30;46.80
39931;DHT22;26635;-35.248;149.138;2023-02-28T06:31:16;27.30;46.70
39931;DHT22;26635;-35.248;149.138;2023-02-28T06:33:48;27.30;46.90
39931;DHT22;26635;-35.248;149.138;2023-02-28T06:36:19;27.20;46.70
39931;DHT22;26635;-35.248;149.138;2023-02-28T06:38:49;27.20;47.00
39931;DHT22;26635;-35.248;149.138;2023-02-28T06:41:25;27.00;46.20
39931;DHT22;26635;-35.248;149.138;2023-02-28T06:44:05;27.00;46.20
39931;DHT22;26635;-35.248;149.138;2023-02-28T06:46:44;27.00;46.60
39931;DHT22;26635;-35.248;149.138;2023-02-28T06:49:15;26.90;46.40
39931;DHT22;26635;-35.248;149.138;2023-02-28T06:51:57;26.90;46.10
39931;DHT22;26635;-35.248;149.138;2023-02-28T06:54:28;26.90;46.70
39931;DHT22;26635;-35.248;149.138;2023-02-28T06:57:01;26.90;47.10
39931;DHT22;26635;-35.248;149.138;2023-02-28T06:59:31;26.90;47.40
39931;DHT22;26635;-35.248;149.138;2023-02-28T07:02:02;26.80;46.30
39931;DHT22;26635;-35.248;149.138;2023-02-28T07:04:34;26.80;46.80
39931;DHT22;26635;-35.248;149.138;2023-02-28T07:07:05;26.70;47.20
39931;DHT22;26635;-35.248;149.138;2023-02-28T07:09:36;26.70;46.80
39931;DHT22;26635;-35.248;149.138;2023-02-28T07:12:06;26.70;46.20
39931;DHT22;26635;-35.248;149.138;2023-02-28T07:14:37;26.70;46.80
39931;DHT22;26635;-35.248;149.138;2023-02-28T07:17:08;26.70;46.30
39931;DHT22;26635;-35.248;149.138;2023-02-28T07:19:41;26.70;46.60
39931;DHT22;26635;-35.248;149.138;2023-02-28T07:22:11;26.70;45.50
39931;DHT22;26635;-35.248;149.138;2023-02-28T07:24:42;26.60;44.80
39931;DHT22;26635;-35.248;149.138;2023-02-28T07:27:15;26.60;44.50
39931;DHT22;26635;-35.248;149.138;2023-02-28T07:29:53;26.50;44.50
39931;DHT22;26635;-35.248;149.138;2023-02-28T07:32:25;26.40;44.70
39931;DHT22;26635;-35.248;149.138;2023-02-28T07:34:55;26.40;44.60
39931;DHT22;26635;-35.248;149.138;2023-02-28T07:37:26;26.40;44.90
39931;DHT22;26635;-35.248;149.138;2023-02-28T07:39:56;26.40;44.20
39931;DHT22;26635;-35.248;149.138;2023-02-28T07:42:27;26.30;45.10
39931;DHT22;26635;-35.248;149.138;2023-02-28T07:44:59;26.30;44.40
39931;DHT22;26635;-35.248;149.138;2023-02-28T07:47:31;26.30;45.10
39931;DHT22;26635;-35.248;149.138;2023-02-28T07:50:02;26.30;44.60
39931;DHT22;26635;-35.248;149.138;2023-02-28T07:52:33;26.20;44.30
39931;DHT22;26635;-35.248;149.138;2023-02-28T07:55:04;26.20;44.10
39931;DHT22;26635;-35.248;149.138;2023-02-28T07:57:34;26.10;44.70
39931;DHT22;26635;-35.248;149.138;2023-02-28T08:00:07;26.10;46.00
39931;DHT22;26635;-35.248;149.138;2023-02-28T08:02:39;26.00;45.80
39931;DHT22;26635;-35.248;149.138;2023-02-28T08:05:09;26.00;46.40
39931;DHT22;26635;-35.248;149.138;2023-02-28T08:07:40;25.90;46.70
39931;DHT22;26635;-35.248;149.138;2023-02-28T08:10:11;25.80;47.10
39931;DHT22;26635;-35.248;149.138;2023-02-28T08:12:43;25.80;48.30
39931;DHT22;26635;-35.248;149.138;2023-02-28T08:15:14;25.70;48.70
39931;DHT22;26635;-35.248;149.138;2023-02-28T08:17:44;25.70;49.00
39931;DHT22;26635;-35.248;149.138;2023-02-28T08:20:14;25.60;49.40
39931;DHT22;26635;-35.248;149.138;2023-02-28T08:22:45;25.50;49.90
39931;DHT22;26635;-35.248;149.138;2023-02-28T08:25:16;25.30;49.90
39931;DHT22;26635;-35.248;149.138;2023-02-28T08:27:51;25.30;50.50
39931;DHT22;26635;-35.248;149.138;2023-02-28T08:30:22;25.20;51.00
39931;DHT22;26635;-35.248;149.138;2023-02-28T08:32:54;25.00;52.00
39931;DHT22;26635;-35.248;149.138;2023-02-28T08:35:25;25.00;52.00
39931;DHT22;26635;-35.248;149.138;2023-02-28T08:37:57;24.90;51.90
39931;DHT22;26635;-35.248;149.138;2023-02-28T08:40:30;24.80;52.30
39931;DHT22;26635;-35.248;149.138;2023-02-28T08:43:02;24.60;53.70
39931;DHT22;26635;-35.248;149.138;2023-02-28T08:45:33;24.50;53.50
39931;DHT22;26635;-35.248;149.138;2023-02-28T08:48:03;24.50;53.80
39931;DHT22;26635;-35.248;149.138;2023-02-28T08:50:34;24.40;54.10
39931;DHT22;26635;-35.248;149.138;2023-02-28T08:53:04;24.30;54.60
39931;DHT22;26635;-35.248;149.138;2023-02-28T08:55:35;24.20;55.10
39931;DHT22;26635;-35.248;149.138;2023-02-28T08:58:05;24.10;54.40
39931;DHT22;26635;-35.248;149.138;2023-02-28T09:00:36;24.10;55.10
39931;DHT22;26635;-35.248;149.138;2023-02-28T09:03:09;24.00;54.30
39931;DHT22;26635;-35.248;149.138;2023-02-28T09:05:40;24.00;54.60
39931;DHT22;26635;-35.248;149.138;2023-02-28T09:08:10;23.90;55.40
39931;DHT22;26635;-35.248;149.138;2023-02-28T09:10:42;23.80;55.10
39931;DHT22;26635;-35.248;149.138;2023-02-28T09:13:13;23.80;54.60
39931;DHT22;26635;-35.248;149.138;2023-02-28T09:15:44;23.70;55.30
39931;DHT22;26635;-35.248;149.138;2023-02-28T09:18:16;23.60;55.30
39931;DHT22;26635;-35.248;149.138;2023-02-28T09:20:46;23.60;57.30
39931;DHT22;26635;-35.248;149.138;2023-02-28T09:23:18;23.50;56.90
39931;DHT22;26635;-35.248;149.138;2023-02-28T09:25:51;23.50;57.00
39931;DHT22;26635;-35.248;149.138;2023-02-28T09:28:23;23.40;57.00
39931;DHT22;26635;-35.248;149.138;2023-02-28T09:30:55;23.30;57.50
39931;DHT22;26635;-35.248;149.138;2023-02-28T09:33:27;23.20;57.50
39931;DHT22;26635;-35.248;149.138;2023-02-28T09:36:01;23.20;58.10
39931;DHT22;26635;-35.248;149.138;2023-02-28T09:38:34;23.10;58.80
39931;DHT22;26635;-35.248;149.138;2023-02-28T09:41:13;23.10;60.00
39931;DHT22;26635;-35.248;149.138;2023-02-28T09:43:49;23.10;60.00
39931;DHT22;26635;-35.248;149.138;2023-02-28T09:46:37;22.90;60.20
39931;DHT22;26635;-35.248;149.138;2023-02-28T09:49:16;22.90;60.50
39931;DHT22;26635;-35.248;149.138;2023-02-28T09:52:04;22.80;61.40
39931;DHT22;26635;-35.248;149.138;2023-02-28T09:54:39;22.80;61.30
39931;DHT22;26635;-35.248;149.138;2023-02-28T09:57:39;22.70;61.80
39931;DHT22;26635;-35.248;149.138;2023-02-28T10:00:32;22.50;61.80
39931;DHT22;26635;-35.248;149.138;2023-02-28T10:06:20;22.40;62.40
39931;DHT22;26635;-35.248;149.138;2023-02-28T10:09:25;22.40;63.10
39931;DHT22;26635;-35.248;149.138;2023-02-28T10:12:03;22.30;63.80
39931;DHT22;26635;-35.248;149.138;2023-02-28T10:14:35;22.20;64.70
39931;DHT22;26635;-35.248;149.138;2023-02-28T10:17:17;22.20;65.60
39931;DHT22;26635;-35.248;149.138;2023-02-28T10:19:58;22.10;67.10
39931;DHT22;26635;-35.248;149.138;2023-02-28T10:22:53;22.10;68.00
39931;DHT22;26635;-35.248;149.138;2023-02-28T10:25:30;22.00;70.60
39931;DHT22;26635;-35.248;149.138;2023-02-28T10:28:12;22.00;72.60
39931;DHT22;26635;-35.248;149.138;2023-02-28T10:30:52;22.00;74.00
39931;DHT22;26635;-35.248;149.138;2023-02-28T10:33:30;22.10;73.90
39931;DHT22;26635;-35.248;149.138;2023-02-28T10:36:02;22.00;74.50
39931;DHT22;26635;-35.248;149.138;2023-02-28T10:38:40;22.00;75.20
39931;DHT22;26635;-35.248;149.138;2023-02-28T10:41:14;22.00;75.30
39931;DHT22;26635;-35.248;149.138;2023-02-28T10:43:46;22.00;75.70
39931;DHT22;26635;-35.248;149.138;2023-02-28T10:46:19;21.90;76.00
39931;DHT22;26635;-35.248;149.138;2023-02-28T10:49:07;21.90;76.10
39931;DHT22;26635;-35.248;149.138;2023-02-28T10:51:43;21.90;76.50
39931;DHT22;26635;-35.248;149.138;2023-02-28T10:54:36;21.80;76.80
39931;DHT22;26635;-35.248;149.138;2023-02-28T10:57:23;21.80;77.00
39931;DHT22;26635;-35.248;149.138;2023-02-28T11:02:52;21.70;77.80
39931;DHT22;26635;-35.248;149.138;2023-02-28T11:05:32;21.70;78.00
39931;DHT22;26635;-35.248;149.138;2023-02-28T11:08:17;21.70;78.20
39931;DHT22;26635;-35.248;149.138;2023-02-28T11:10:58;21.60;78.50
39931;DHT22;26635;-35.248;149.138;2023-02-28T11:13:33;21.60;79.50
39931;DHT22;26635;-35.248;149.138;2023-02-28T11:16:07;21.60;78.60
39931;DHT22;26635;-35.248;149.138;2023-02-28T11:21:19;21.50;79.00
39931;DHT22;26635;-35.248;149.138;2023-02-28T11:24:12;21.40;78.70
39931;DHT22;26635;-35.248;149.138;2023-02-28T11:26:48;21.30;79.50
39931;DHT22;26635;-35.248;149.138;2023-02-28T11:29:29;21.30;80.10
39931;DHT22;26635;-35.248;149.138;2023-02-28T11:34:34;21.20;80.30
39931;DHT22;26635;-35.248;149.138;2023-02-28T11:37:18;21.10;81.00
39931;DHT22;26635;-35.248;149.138;2023-02-28T11:39:53;21.10;81.40
39931;DHT22;26635;-35.248;149.138;2023-02-28T11:45:43;21.10;80.90
39931;DHT22;26635;-35.248;149.138;2023-02-28T11:48:41;21.00;81.20
39931;DHT22;26635;-35.248;149.138;2023-02-28T11:51:15;21.10;81.80
39931;DHT22;26635;-35.248;149.138;2023-02-28T11:56:47;20.90;81.90
39931;DHT22;26635;-35.248;149.138;2023-02-28T12:02:24;20.90;82.30
39931;DHT22;26635;-35.248;149.138;2023-02-28T12:05:12;20.80;82.40
39931;DHT22;26635;-35.248;149.138;2023-02-28T12:08:15;20.80;82.60
39931;DHT22;26635;-35.248;149.138;2023-02-28T12:16:42;20.80;82.40
39931;DHT22;26635;-35.248;149.138;2023-02-28T12:22:12;20.70;82.40
39931;DHT22;26635;-35.248;149.138;2023-02-28T12:25:01;20.70;82.90
39931;DHT22;26635;-35.248;149.138;2023-02-28T12:27:40;20.60;82.70
39931;DHT22;26635;-35.248;149.138;2023-02-28T12:30:25;20.60;83.20
39931;DHT22;26635;-35.248;149.138;2023-02-28T12:33:15;20.50;83.40
39931;DHT22;26635;-35.248;149.138;2023-02-28T12:35:51;20.40;82.90
39931;DHT22;26635;-35.248;149.138;2023-02-28T12:39:11;20.40;83.70
39931;DHT22;26635;-35.248;149.138;2023-02-28T12:41:42;20.30;83.60
39931;DHT22;26635;-35.248;149.138;2023-02-28T12:44:40;20.30;83.50
39931;DHT22;26635;-35.248;149.138;2023-02-28T12:47:17;20.30;84.20
39931;DHT22;26635;-35.248;149.138;2023-02-28T12:49:58;20.30;84.40
39931;DHT22;26635;-35.248;149.138;2023-02-28T12:58:12;20.20;84.60
39931;DHT22;26635;-35.248;149.138;2023-02-28T13:04:13;20.10;84.10
39931;DHT22;26635;-35.248;149.138;2023-02-28T13:07:17;20.10;84.20
39931;DHT22;26635;-35.248;149.138;2023-02-28T13:09:56;20.00;84.90
39931;DHT22;26635;-35.248;149.138;2023-02-28T13:12:28;20.00;84.60
39931;DHT22;26635;-35.248;149.138;2023-02-28T13:15:27;19.90;84.50
39931;DHT22;26635;-35.248;149.138;2023-02-28T13:18:00;19.90;85.50
39931;DHT22;26635;-35.248;149.138;2023-02-28T13:20:37;19.80;85.30
39931;DHT22;26635;-35.248;149.138;2023-02-28T13:26:22;19.80;86.60
39931;DHT22;26635;-35.248;149.138;2023-02-28T13:28:57;19.80;86.30
39931;DHT22;26635;-35.248;149.138;2023-02-28T13:31:32;19.80;86.00
39931;DHT22;26635;-35.248;149.138;2023-02-28T13:34:14;19.70;86.10
39931;DHT22;26635;-35.248;149.138;2023-02-28T13:36:49;19.70;85.70
39931;DHT22;26635;-35.248;149.138;2023-02-28T13:42:32;19.60;86.60
39931;DHT22;26635;-35.248;149.138;2023-02-28T13:47:48;19.60;86.90
39931;DHT22;26635;-35.248;149.138;2023-02-28T14:05:21;19.50;86.60
39931;DHT22;26635;-35.248;149.138;2023-02-28T14:08:04;19.50;86.70
39931;DHT22;26635;-35.248;149.138;2023-02-28T14:10:44;19.50;86.80
39931;DHT22;26635;-35.248;149.138;2023-02-28T14:16:03;19.40;86.40
39931;DHT22;26635;-35.248;149.138;2023-02-28T14:18:39;19.30;86.80
39931;DHT22;26635;-35.248;149.138;2023-02-28T14:21:35;19.30;86.80
39931;DHT22;26635;-35.248;149.138;2023-02-28T14:38:22;19.00;87.20
39931;DHT22;26635;-35.248;149.138;2023-02-28T14:41:02;18.90;87.60
39931;DHT22;26635;-35.248;149.138;2023-02-28T14:43:34;18.90;88.30
39931;DHT22;26635;-35.248;149.138;2023-02-28T14:46:07;18.90;88.60
39931;DHT22;26635;-35.248;149.138;2023-02-28T14:48:38;18.80;88.40
39931;DHT22;26635;-35.248;149.138;2023-02-28T14:51:11;18.80;88.20
39931;DHT22;26635;-35.248;149.138;2023-02-28T14:53:45;18.80;88.10
39931;DHT22;26635;-35.248;149.138;2023-02-28T14:56:34;18.80;88.00
39931;DHT22;26635;-35.248;149.138;2023-02-28T14:59:30;18.80;88.20
39931;DHT22;26635;-35.248;149.138;2023-02-28T15:02:23;18.70;88.50
39931;DHT22;26635;-35.248;149.138;2023-02-28T15:08:46;18.70;89.10
39931;DHT22;26635;-35.248;149.138;2023-02-28T15:13:46;18.70;88.10
39931;DHT22;26635;-35.248;149.138;2023-02-28T15:16:24;18.60;88.20
39931;DHT22;26635;-35.248;149.138;2023-02-28T15:19:39;18.70;88.70
39931;DHT22;26635;-35.248;149.138;2023-02-28T15:22:15;18.60;88.80
39931;DHT22;26635;-35.248;149.138;2023-02-28T15:24:56;18.60;88.60
39931;DHT22;26635;-35.248;149.138;2023-02-28T15:27:35;18.60;89.10
39931;DHT22;26635;-35.248;149.138;2023-02-28T15:30:27;18.60;89.10
39931;DHT22;26635;-35.248;149.138;2023-02-28T15:33:33;18.50;89.10
39931;DHT22;26635;-35.248;149.138;2023-02-28T15:36:15;18.50;89.10
39931;DHT22;26635;-35.248;149.138;2023-02-28T15:38:51;18.40;89.10
39931;DHT22;26635;-35.248;149.138;2023-02-28T15:41:41;18.40;89.00
39931;DHT22;26635;-35.248;149.138;2023-02-28T15:44:27;18.40;88.30
39931;DHT22;26635;-35.248;149.138;2023-02-28T15:47:25;18.30;88.60
39931;DHT22;26635;-35.248;149.138;2023-02-28T15:50:05;18.30;88.00
39931;DHT22;26635;-35.248;149.138;2023-02-28T15:52:41;18.20;88.20
39931;DHT22;26635;-35.248;149.138;2023-02-28T15:55:24;18.20;88.40
39931;DHT22;26635;-35.248;149.138;2023-02-28T15:58:00;18.10;88.90
39931;DHT22;26635;-35.248;149.138;2023-02-28T16:00:32;18.10;88.90
39931;DHT22;26635;-35.248;149.138;2023-02-28T16:03:32;18.00;88.80
39931;DHT22;26635;-35.248;149.138;2023-02-28T16:06:38;18.00;89.40
39931;DHT22;26635;-35.248;149.138;2023-02-28T16:09:16;18.00;88.90
39931;DHT22;26635;-35.248;149.138;2023-02-28T16:11:48;17.90;88.80
39931;DHT22;26635;-35.248;149.138;2023-02-28T16:14:24;17.90;89.30
39931;DHT22;26635;-35.248;149.138;2023-02-28T16:17:22;17.80;90.00
39931;DHT22;26635;-35.248;149.138;2023-02-28T16:19:55;17.80;89.70
39931;DHT22;26635;-35.248;149.138;2023-02-28T16:22:26;17.70;88.30
39931;DHT22;26635;-35.248;149.138;2023-02-28T16:25:02;17.70;89.40
39931;DHT22;26635;-35.248;149.138;2023-02-28T16:27:38;17.70;88.70
39931;DHT22;26635;-35.248;149.138;2023-02-28T16:30:21;17.70;88.70
39931;DHT22;26635;-35.248;149.138;2023-02-28T16:32:54;17.60;88.60
39931;DHT22;26635;-35.248;149.138;2023-02-28T16:35:28;17.60;88.90
39931;DHT22;26635;-35.248;149.138;2023-02-28T16:38:02;17.50;88.60
39931;DHT22;26635;-35.248;149.138;2023-02-28T16:40:35;17.50;89.30
39931;DHT22;26635;-35.248;149.138;2023-02-28T16:43:17;17.40;89.20
39931;DHT22;26635;-35.248;149.138;2023-02-28T16:45:59;17.40;89.00
39931;DHT22;26635;-35.248;149.138;2023-02-28T16:48:33;17.40;89.50
39931;DHT22;26635;-35.248;149.138;2023-02-28T16:51:04;17.40;89.40
39931;DHT22;26635;-35.248;149.138;2023-02-28T16:53:37;17.30;89.60
39931;DHT22;26635;-35.248;149.138;2023-02-28T16:56:17;17.30;90.00
39931;DHT22;26635;-35.248;149.138;2023-02-28T16:58:50;17.30;90.10
39931;DHT22;26635;-35.248;149.138;2023-02-28T17:01:22;17.20;89.40
39931;DHT22;26635;-35.248;149.138;2023-02-28T17:03:55;17.20;89.80
39931;DHT22;26635;-35.248;149.138;2023-02-28T17:06:28;17.20;89.40
39931;DHT22;26635;-35.248;149.138;2023-02-28T17:08:59;17.10;90.00
39931;DHT22;26635;-35.248;149.138;2023-02-28T17:11:33;17.10;89.30
39931;DHT22;26635;-35.248;149.138;2023-02-28T17:14:04;17.10;90.10
39931;DHT22;26635;-35.248;149.138;2023-02-28T17:16:40;17.10;90.10
39931;DHT22;26635;-35.248;149.138;2023-02-28T17:19:15;17.00;90.30
39931;DHT22;26635;-35.248;149.138;2023-02-28T17:21:49;17.00;90.60
39931;DHT22;26635;-35.248;149.138;2023-02-28T17:24:21;17.00;90.70
39931;DHT22;26635;-35.248;149.138;2023-02-28T17:26:58;17.10;91.10
39931;DHT22;26635;-35.248;149.138;2023-02-28T17:29:32;17.10;91.00
39931;DHT22;26635;-35.248;149.138;2023-02-28T17:32:04;17.20;91.20
39931;DHT22;26635;-35.248;149.138;2023-02-28T17:34:44;17.30;91.30
39931;DHT22;26635;-35.248;149.138;2023-02-28T17:37:15;17.30;91.30
39931;DHT22;26635;-35.248;149.138;2023-02-28T17:39:46;17.40;91.50
39931;DHT22;26635;-35.248;149.138;2023-02-28T17:42:17;17.40;91.60
39931;DHT22;26635;-35.248;149.138;2023-02-28T17:44:51;17.50;91.50
39931;DHT22;26635;-35.248;149.138;2023-02-28T17:47:23;17.60;91.50
39931;DHT22;26635;-35.248;149.138;2023-02-28T17:49:54;17.70;91.30
39931;DHT22;26635;-35.248;149.138;2023-02-28T17:52:26;17.70;91.20